sensor_id;sensor_type;location;lat;lon;timestamp;pressure;altitude;pressure_sealevel;temperature;humidity
26859;BME280;14429;48.346;16.338;2023-04-08T00:01:24;99853.22;;;9.79;59.91
26859;BME280;14429;48.346;16.338;2023-04-08T00:03:49;99843.56;;;10.18;55.70
26859;BME280;14429;48.346;16.338;2023-04-08T00:06:16;99839.91;;;10.06;57.44
26859;BME280;14429;48.346;16.338;2023-04-08T00:08:41;99844.44;;;10.18;57.03
26859;BME280;14429;48.346;16.338;2023-04-08T00:11:07;99849.91;;;10.29;55.33
26859;BME280;14429;48.346;16.338;2023-04-08T00:13:32;99844.63;;;10.79;51.89
26859;BME280;14429;48.346;16.338;2023-04-08T00:15:58;99853.53;;;10.28;56.48
26859;BME280;14429;48.346;16.338;2023-04-08T00:18:23;99851.38;;;10.85;52.04
26859;BME280;14429;48.346;16.338;2023-04-08T00:20:48;99849.75;;;11.33;50.06
26859;BME280;14429;48.346;16.338;2023-04-08T00:23:15;99847.63;;;11.50;49.20
26859;BME280;14429;48.346;16.338;2023-04-08T00:25:41;99850.97;;;10.91;54.15
26859;BME280;14429;48.346;16.338;2023-04-08T00:28:06;99850.91;;;10.66;55.16
26859;BME280;14429;48.346;16.338;2023-04-08T00:30:32;99860.97;;;10.23;57.10
26859;BME280;14429;48.346;16.338;2023-04-08T00:32:57;99859.22;;;9.96;57.65
26859;BME280;14429;48.346;16.338;2023-04-08T00:35:22;99868.59;;;8.76;63.96
26859;BME280;14429;48.346;16.338;2023-04-08T00:37:48;99869.56;;;8.75;64.30
26859;BME280;14429;48.346;16.338;2023-04-08T00:40:15;99872.19;;;8.46;64.96
26859;BME280;14429;48.346;16.338;2023-04-08T00:42:40;99875.47;;;8.06;66.05
26859;BME280;14429;48.346;16.338;2023-04-08T00:45:07;99873.91;;;8.76;62.17
26859;BME280;14429;48.346;16.338;2023-04-08T00:47:34;99879.91;;;8.80;61.61
26859;BME280;14429;48.346;16.338;2023-04-08T00:50:00;99882.63;;;8.04;66.31
26859;BME280;14429;48.346;16.338;2023-04-08T00:52:25;99874.59;;;8.35;63.23
26859;BME280;14429;48.346;16.338;2023-04-08T00:54:50;99886.38;;;8.00;65.11
26859;BME280;14429;48.346;16.338;2023-04-08T00:57:17;99887.06;;;7.73;66.90
26859;BME280;14429;48.346;16.338;2023-04-08T00:59:43;99890.31;;;7.78;65.96
26859;BME280;14429;48.346;16.338;2023-04-08T01:02:13;99886.06;;;7.90;66.20
26859;BME280;14429;48.346;16.338;2023-04-08T01:04:43;99880.63;;;7.77;66.64
26859;BME280;14429;48.346;16.338;2023-04-08T01:07:16;99884.69;;;7.83;66.16
26859;BME280;14429;48.346;16.338;2023-04-08T01:09:44;99884.06;;;7.31;67.51
26859;BME280;14429;48.346;16.338;2023-04-08T01:12:11;99882.34;;;7.78;65.52
26859;BME280;14429;48.346;16.338;2023-04-08T01:14:42;99883.00;;;8.13;63.66
26859;BME280;14429;48.346;16.338;2023-04-08T01:17:09;99880.06;;;8.02;64.57
26859;BME280;14429;48.346;16.338;2023-04-08T01:19:38;99882.97;;;7.82;65.51
26859;BME280;14429;48.346;16.338;2023-04-08T01:22:10;99879.53;;;7.80;65.07
26859;BME280;14429;48.346;16.338;2023-04-08T01:24:39;99884.13;;;7.62;65.69
26859;BME280;14429;48.346;16.338;2023-04-08T01:27:09;99892.19;;;7.76;64.67
26859;BME280;14429;48.346;16.338;2023-04-08T01:29:35;99885.56;;;8.30;62.09
26859;BME280;14429;48.346;16.338;2023-04-08T01:32:02;99874.72;;;8.92;58.96
26859;BME280;14429;48.346;16.338;2023-04-08T01:34:29;99878.31;;;9.20;57.42
26859;BME280;14429;48.346;16.338;2023-04-08T01:36:56;99876.22;;;9.52;55.92
26859;BME280;14429;48.346;16.338;2023-04-08T01:39:23;99874.91;;;10.00;54.20
26859;BME280;14429;48.346;16.338;2023-04-08T01:41:52;99878.34;;;10.02;53.57
26859;BME280;14429;48.346;16.338;2023-04-08T01:44:20;99875.19;;;10.10;52.93
26859;BME280;14429;48.346;16.338;2023-04-08T01:46:47;99874.38;;;10.61;51.83
26859;BME280;14429;48.346;16.338;2023-04-08T01:49:14;99871.63;;;10.75;51.21
26859;BME280;14429;48.346;16.338;2023-04-08T01:51:40;99870.09;;;11.09;50.20
26859;BME280;14429;48.346;16.338;2023-04-08T01:54:06;99879.38;;;11.04;49.92
26859;BME280;14429;48.346;16.338;2023-04-08T01:56:35;99873.44;;;11.25;49.48
26859;BME280;14429;48.346;16.338;2023-04-08T01:59:02;99879.66;;;11.50;48.63
26859;BME280;14429;48.346;16.338;2023-04-08T02:01:34;99869.84;;;11.75;48.02
26859;BME280;14429;48.346;16.338;2023-04-08T02:04:00;99872.63;;;11.86;47.51
26859;BME280;14429;48.346;16.338;2023-04-08T02:06:27;99872.41;;;11.89;47.39
26859;BME280;14429;48.346;16.338;2023-04-08T02:08:53;99872.16;;;12.04;46.83
26859;BME280;14429;48.346;16.338;2023-04-08T02:11:18;99869.78;;;12.12;46.60
26859;BME280;14429;48.346;16.338;2023-04-08T02:13:44;99875.47;;;12.08;46.60
26859;BME280;14429;48.346;16.338;2023-04-08T02:16:13;99868.47;;;12.17;46.40
26859;BME280;14429;48.346;16.338;2023-04-08T02:18:42;99873.16;;;12.26;46.12
26859;BME280;14429;48.346;16.338;2023-04-08T02:21:12;99877.84;;;12.35;45.85
26859;BME280;14429;48.346;16.338;2023-04-08T02:23:39;99877.41;;;12.41;45.62
26859;BME280;14429;48.346;16.338;2023-04-08T02:26:07;99882.53;;;12.44;45.52
26859;BME280;14429;48.346;16.338;2023-04-08T02:28:38;99880.09;;;12.29;45.73
26859;BME280;14429;48.346;16.338;2023-04-08T02:31:05;99882.75;;;12.41;45.60
26859;BME280;14429;48.346;16.338;2023-04-08T02:33:33;99883.13;;;12.47;45.40
26859;BME280;14429;48.346;16.338;2023-04-08T02:36:01;99889.59;;;12.45;45.44
26859;BME280;14429;48.346;16.338;2023-04-08T02:38:27;99880.38;;;12.49;45.36
26859;BME280;14429;48.346;16.338;2023-04-08T02:40:53;99892.75;;;12.50;45.35
26859;BME280;14429;48.346;16.338;2023-04-08T02:43:18;99888.38;;;12.49;45.24
26859;BME280;14429;48.346;16.338;2023-04-08T02:45:44;99881.09;;;12.51;45.05
26859;BME280;14429;48.346;16.338;2023-04-08T02:48:09;99888.16;;;12.52;45.06
26859;BME280;14429;48.346;16.338;2023-04-08T02:50:35;99890.84;;;12.52;45.13
26859;BME280;14429;48.346;16.338;2023-04-08T02:53:02;99890.84;;;12.52;45.11
26859;BME280;14429;48.346;16.338;2023-04-08T02:55:27;99892.53;;;12.53;45.05
26859;BME280;14429;48.346;16.338;2023-04-08T02:57:53;99888.16;;;12.52;44.86
26859;BME280;14429;48.346;16.338;2023-04-08T03:00:18;99893.41;;;12.53;44.91
26859;BME280;14429;48.346;16.338;2023-04-08T03:02:44;99891.78;;;12.51;45.00
26859;BME280;14429;48.346;16.338;2023-04-08T03:05:09;99885.50;;;12.52;44.92
26859;BME280;14429;48.346;16.338;2023-04-08T03:07:35;99896.19;;;12.52;44.96
26859;BME280;14429;48.346;16.338;2023-04-08T03:10:02;99892.75;;;12.50;44.86
26859;BME280;14429;48.346;16.338;2023-04-08T03:12:27;99894.47;;;12.51;44.76
26859;BME280;14429;48.346;16.338;2023-04-08T03:14:53;99891.78;;;12.51;44.88
26859;BME280;14429;48.346;16.338;2023-04-08T03:17:18;99891.78;;;12.51;44.85
26859;BME280;14429;48.346;16.338;2023-04-08T03:19:44;99889.38;;;12.48;44.94
26859;BME280;14429;48.346;16.338;2023-04-08T03:22:09;99891.06;;;12.49;44.82
26859;BME280;14429;48.346;16.338;2023-04-08T03:24:35;99890.09;;;12.50;44.79
26859;BME280;14429;48.346;16.338;2023-04-08T03:27:02;99889.38;;;12.48;44.91
26859;BME280;14429;48.346;16.338;2023-04-08T03:29:27;99899.09;;;12.49;44.85
26859;BME280;14429;48.346;16.338;2023-04-08T03:31:53;99892.97;;;12.47;44.81
26859;BME280;14429;48.346;16.338;2023-04-08T03:34:18;99891.06;;;12.49;44.95
26859;BME280;14429;48.346;16.338;2023-04-08T03:36:44;99896.41;;;12.49;44.84
26859;BME280;14429;48.346;16.338;2023-04-08T03:39:09;99899.19;;;12.47;44.89
26859;BME280;14429;48.346;16.338;2023-04-08T03:41:35;99889.38;;;12.48;44.73
26859;BME280;14429;48.346;16.338;2023-04-08T03:44:02;99891.91;;;12.49;44.60
26859;BME280;14429;48.346;16.338;2023-04-08T03:46:27;99894.72;;;12.48;44.67
26859;BME280;14429;48.346;16.338;2023-04-08T03:48:52;99903.69;;;12.47;44.70
26859;BME280;14429;48.346;16.338;2023-04-08T03:51:18;99901.00;;;12.47;44.68
26859;BME280;14429;48.346;16.338;2023-04-08T03:53:43;99905.63;;;12.45;44.85
26859;BME280;14429;48.346;16.338;2023-04-08T03:56:09;99905.63;;;12.45;44.82
26859;BME280;14429;48.346;16.338;2023-04-08T03:58:34;99895.91;;;12.44;44.85
26859;BME280;14429;48.346;16.338;2023-04-08T04:01:01;99902.19;;;12.43;44.78
26859;BME280;14429;48.346;16.338;2023-04-08T04:03:26;99899.53;;;12.43;45.02
26859;BME280;14429;48.346;16.338;2023-04-08T04:05:53;99904.78;;;12.32;44.81
26859;BME280;14429;48.346;16.338;2023-04-08T04:08:18;99906.06;;;12.39;44.88
26859;BME280;14429;48.346;16.338;2023-04-08T04:10:44;99914.94;;;12.39;44.86
26859;BME280;14429;48.346;16.338;2023-04-08T04:13:09;99916.75;;;12.39;44.86
26859;BME280;14429;48.346;16.338;2023-04-08T04:15:37;99915.06;;;12.38;44.87
26859;BME280;14429;48.346;16.338;2023-04-08T04:18:04;99928.94;;;12.43;44.84
26859;BME280;14429;48.346;16.338;2023-04-08T04:20:29;99927.44;;;12.39;44.87
26859;BME280;14429;48.346;16.338;2023-04-08T04:22:55;99921.25;;;12.38;44.85
26859;BME280;14429;48.346;16.338;2023-04-08T04:25:20;99922.09;;;12.39;44.76
26859;BME280;14429;48.346;16.338;2023-04-08T04:27:46;99927.44;;;12.39;44.76
26859;BME280;14429;48.346;16.338;2023-04-08T04:30:11;99918.78;;;12.36;44.73
26859;BME280;14429;48.346;16.338;2023-04-08T04:32:37;99921.59;;;12.34;44.79
26859;BME280;14429;48.346;16.338;2023-04-08T04:35:04;99927.44;;;12.39;44.63
26859;BME280;14429;48.346;16.338;2023-04-08T04:37:29;99928.41;;;12.38;44.74
26859;BME280;14429;48.346;16.338;2023-04-08T04:39:55;99935.81;;;12.35;44.85
26859;BME280;14429;48.346;16.338;2023-04-08T04:42:20;99931.31;;;12.35;44.82
26859;BME280;14429;48.346;16.338;2023-04-08T04:44:46;99929.63;;;12.34;44.86
26859;BME280;14429;48.346;16.338;2023-04-08T04:47:11;99937.63;;;12.34;44.78
26859;BME280;14429;48.346;16.338;2023-04-08T04:49:36;99933.25;;;12.33;44.84
26859;BME280;14429;48.346;16.338;2023-04-08T04:52:03;99937.84;;;12.31;45.02
26859;BME280;14429;48.346;16.338;2023-04-08T04:54:29;99935.16;;;12.31;44.93
26859;BME280;14429;48.346;16.338;2023-04-08T04:56:54;99935.09;;;12.33;44.88
26859;BME280;14429;48.346;16.338;2023-04-08T04:59:20;99942.22;;;12.32;44.80
26859;BME280;14429;48.346;16.338;2023-04-08T05:01:45;99943.19;;;12.31;44.91
26859;BME280;14429;48.346;16.338;2023-04-08T05:04:10;99944.88;;;12.32;44.82
26859;BME280;14429;48.346;16.338;2023-04-08T05:06:36;99943.94;;;12.33;44.82
26859;BME280;14429;48.346;16.338;2023-04-08T05:09:03;99948.53;;;12.31;44.81
26859;BME280;14429;48.346;16.338;2023-04-08T05:11:29;99950.28;;;12.20;45.08
26859;BME280;14429;48.346;16.338;2023-04-08T05:13:54;99957.22;;;12.22;45.08
26859;BME280;14429;48.346;16.338;2023-04-08T05:16:20;99950.78;;;12.25;45.00
26859;BME280;14429;48.346;16.338;2023-04-08T05:18:45;99959.06;;;12.22;45.06
26859;BME280;14429;48.346;16.338;2023-04-08T05:21:11;99962.25;;;12.27;45.01
26859;BME280;14429;48.346;16.338;2023-04-08T05:23:36;99969.19;;;12.29;44.88
26859;BME280;14429;48.346;16.338;2023-04-08T05:26:05;99967.47;;;12.28;44.84
26859;BME280;14429;48.346;16.338;2023-04-08T05:28:31;99969.41;;;12.26;44.99
26859;BME280;14429;48.346;16.338;2023-04-08T05:30:56;99972.28;;;12.23;44.96
26859;BME280;14429;48.346;16.338;2023-04-08T05:33:22;99982.78;;;12.26;45.00
26859;BME280;14429;48.346;16.338;2023-04-08T05:35:47;99980.75;;;12.30;44.81
26859;BME280;14429;48.346;16.338;2023-04-08T05:38:12;99968.44;;;12.27;44.85
26859;BME280;14429;48.346;16.338;2023-04-08T05:40:38;99981.59;;;12.30;44.84
26859;BME280;14429;48.346;16.338;2023-04-08T05:43:05;99982.00;;;12.24;44.98
26859;BME280;14429;48.346;16.338;2023-04-08T05:45:30;99986.31;;;12.27;44.81
26859;BME280;14429;48.346;16.338;2023-04-08T05:47:56;99988.13;;;12.26;44.83
26859;BME280;14429;48.346;16.338;2023-04-08T05:50:21;99994.66;;;12.22;44.89
26859;BME280;14429;48.346;16.338;2023-04-08T05:52:47;100005.00;;;12.27;44.94
26859;BME280;14429;48.346;16.338;2023-04-08T05:55:13;100001.91;;;12.20;45.08
26859;BME280;14429;48.346;16.338;2023-04-08T05:57:39;100003.22;;;12.15;45.08
26859;BME280;14429;48.346;16.338;2023-04-08T06:00:08;100012.53;;;12.22;44.95
26859;BME280;14429;48.346;16.338;2023-04-08T06:02:33;100012.72;;;12.19;44.72
26859;BME280;14429;48.346;16.338;2023-04-08T06:04:59;100016.47;;;11.92;44.48
26859;BME280;14429;48.346;16.338;2023-04-08T06:07:24;100006.09;;;12.12;45.15
26859;BME280;14429;48.346;16.338;2023-04-08T06:09:50;100011.97;;;12.17;45.07
26859;BME280;14429;48.346;16.338;2023-04-08T06:12:15;100010.91;;;12.19;45.09
26859;BME280;14429;48.346;16.338;2023-04-08T06:14:41;100012.41;;;12.23;44.91
26859;BME280;14429;48.346;16.338;2023-04-08T06:17:08;100010.59;;;12.12;45.23
26859;BME280;14429;48.346;16.338;2023-04-08T06:19:33;100005.03;;;12.14;45.13
26859;BME280;14429;48.346;16.338;2023-04-08T06:21:59;100019.13;;;12.16;45.07
26859;BME280;14429;48.346;16.338;2023-04-08T06:24:25;100009.81;;;12.10;45.29
26859;BME280;14429;48.346;16.338;2023-04-08T06:26:50;100023.75;;;12.14;45.12
26859;BME280;14429;48.346;16.338;2023-04-08T06:29:16;100023.19;;;12.10;45.32
26859;BME280;14429;48.346;16.338;2023-04-08T06:31:41;100024.47;;;12.16;45.01
26859;BME280;14429;48.346;16.338;2023-04-08T06:34:08;100038.59;;;12.18;45.00
26859;BME280;14429;48.346;16.338;2023-04-08T06:36:33;100023.50;;;12.17;44.97
26859;BME280;14429;48.346;16.338;2023-04-08T06:38:59;100037.84;;;12.16;44.93
26859;BME280;14429;48.346;16.338;2023-04-08T06:41:24;100032.50;;;12.16;44.96
26859;BME280;14429;48.346;16.338;2023-04-08T06:43:49;100025.03;;;12.21;44.93
26859;BME280;14429;48.346;16.338;2023-04-08T06:46:15;100035.63;;;12.11;45.24
26859;BME280;14429;48.346;16.338;2023-04-08T06:48:40;100034.44;;;12.14;45.01
26859;BME280;14429;48.346;16.338;2023-04-08T06:51:07;100036.56;;;11.85;46.10
26859;BME280;14429;48.346;16.338;2023-04-08T06:53:32;100030.03;;;11.89;45.82
26859;BME280;14429;48.346;16.338;2023-04-08T06:55:58;100031.66;;;12.04;45.45
26859;BME280;14429;48.346;16.338;2023-04-08T06:58:23;100033.25;;;11.94;45.93
26859;BME280;14429;48.346;16.338;2023-04-08T07:00:49;100035.81;;;12.08;45.34
26859;BME280;14429;48.346;16.338;2023-04-08T07:03:14;100045.34;;;12.12;45.16
26859;BME280;14429;48.346;16.338;2023-04-08T07:05:40;100032.69;;;12.13;45.02
26859;BME280;14429;48.346;16.338;2023-04-08T07:08:07;100042.47;;;12.14;45.12
26859;BME280;14429;48.346;16.338;2023-04-08T07:10:33;100047.03;;;12.12;45.09
26859;BME280;14429;48.346;16.338;2023-04-08T07:12:59;100049.63;;;12.14;45.17
26859;BME280;14429;48.346;16.338;2023-04-08T07:15:24;100043.41;;;12.13;45.05
26859;BME280;14429;48.346;16.338;2023-04-08T07:17:50;100047.38;;;12.08;45.29
26859;BME280;14429;48.346;16.338;2023-04-08T07:20:15;100054.19;;;12.12;45.06
26859;BME280;14429;48.346;16.338;2023-04-08T07:22:41;100067.38;;;12.15;44.95
26859;BME280;14429;48.346;16.338;2023-04-08T07:25:08;100061.31;;;11.87;46.22
26859;BME280;14429;48.346;16.338;2023-04-08T07:27:34;100063.69;;;11.91;45.84
26859;BME280;14429;48.346;16.338;2023-04-08T07:29:59;100069.47;;;11.98;45.42
26859;BME280;14429;48.346;16.338;2023-04-08T07:32:25;100075.31;;;11.78;46.15
26859;BME280;14429;48.346;16.338;2023-04-08T07:34:50;100078.19;;;11.75;46.21
26859;BME280;14429;48.346;16.338;2023-04-08T07:37:16;100081.69;;;10.98;49.56
26859;BME280;14429;48.346;16.338;2023-04-08T07:39:41;100072.91;;;11.35;48.29
26859;BME280;14429;48.346;16.338;2023-04-08T07:42:08;100080.50;;;11.15;49.00
26859;BME280;14429;48.346;16.338;2023-04-08T07:44:33;100089.47;;;11.14;48.30
26859;BME280;14429;48.346;16.338;2023-04-08T07:46:59;100088.66;;;11.26;48.03
26859;BME280;14429;48.346;16.338;2023-04-08T07:49:24;100087.91;;;11.38;47.57
26859;BME280;14429;48.346;16.338;2023-04-08T07:51:49;100095.69;;;11.01;50.43
26859;BME280;14429;48.346;16.338;2023-04-08T07:54:15;100091.13;;;11.43;47.33
26859;BME280;14429;48.346;16.338;2023-04-08T07:56:40;100087.78;;;11.65;46.54
26859;BME280;14429;48.346;16.338;2023-04-08T07:59:07;100100.88;;;11.82;46.06
26859;BME280;14429;48.346;16.338;2023-04-08T08:01:32;100107.41;;;11.52;47.24
26859;BME280;14429;48.346;16.338;2023-04-08T08:03:58;100104.97;;;11.61;46.65
26859;BME280;14429;48.346;16.338;2023-04-08T08:06:23;100102.56;;;11.83;46.04
26859;BME280;14429;48.346;16.338;2023-04-08T08:08:49;100102.50;;;11.85;46.03
26859;BME280;14429;48.346;16.338;2023-04-08T08:11:14;100100.88;;;11.94;45.71
26859;BME280;14429;48.346;16.338;2023-04-08T08:13:39;100110.31;;;12.00;45.51
26859;BME280;14429;48.346;16.338;2023-04-08T08:16:06;100114.41;;;11.27;48.53
26859;BME280;14429;48.346;16.338;2023-04-08T08:18:32;100125.22;;;10.98;49.17
26859;BME280;14429;48.346;16.338;2023-04-08T08:21:00;100113.91;;;10.67;50.47
26859;BME280;14429;48.346;16.338;2023-04-08T08:23:25;100131.22;;;10.19;53.31
26859;BME280;14429;48.346;16.338;2023-04-08T08:25:58;100131.03;;;10.22;53.32
26859;BME280;14429;48.346;16.338;2023-04-08T08:28:23;100135.81;;;9.73;55.37
26859;BME280;14429;48.346;16.338;2023-04-08T08:30:49;100127.63;;;10.75;49.80
26859;BME280;14429;48.346;16.338;2023-04-08T08:33:15;100131.88;;;11.19;48.21
26859;BME280;14429;48.346;16.338;2023-04-08T08:35:41;100137.88;;;11.08;48.94
26859;BME280;14429;48.346;16.338;2023-04-08T08:38:06;100149.97;;;10.18;53.08
26859;BME280;14429;48.346;16.338;2023-04-08T08:40:32;100152.63;;;10.31;51.79
26859;BME280;14429;48.346;16.338;2023-04-08T08:42:58;100148.38;;;10.29;52.45
26859;BME280;14429;48.346;16.338;2023-04-08T08:45:23;100158.41;;;10.10;53.10
26859;BME280;14429;48.346;16.338;2023-04-08T08:47:50;100148.19;;;10.87;49.19
26859;BME280;14429;48.346;16.338;2023-04-08T08:50:17;100153.03;;;11.08;48.46
26859;BME280;14429;48.346;16.338;2023-04-08T08:52:47;100154.16;;;11.45;47.39
26859;BME280;14429;48.346;16.338;2023-04-08T08:55:13;100151.94;;;11.52;47.19
26859;BME280;14429;48.346;16.338;2023-04-08T08:57:38;100164.63;;;11.48;47.06
26859;BME280;14429;48.346;16.338;2023-04-08T09:00:05;100158.81;;;11.42;47.90
26859;BME280;14429;48.346;16.338;2023-04-08T09:02:31;100151.69;;;11.68;46.62
26859;BME280;14429;48.346;16.338;2023-04-08T09:04:57;100160.09;;;11.62;46.74
26859;BME280;14429;48.346;16.338;2023-04-08T09:07:25;100159.94;;;11.52;46.79
26859;BME280;14429;48.346;16.338;2023-04-08T09:09:51;100170.88;;;11.07;50.56
26859;BME280;14429;48.346;16.338;2023-04-08T09:12:17;100176.38;;;11.18;48.55
26859;BME280;14429;48.346;16.338;2023-04-08T09:14:42;100170.06;;;11.33;47.99
26859;BME280;14429;48.346;16.338;2023-04-08T09:17:08;100181.16;;;11.13;48.82
26859;BME280;14429;48.346;16.338;2023-04-08T09:19:34;100181.66;;;11.59;46.94
26859;BME280;14429;48.346;16.338;2023-04-08T09:22:06;100189.69;;;10.49;52.29
26859;BME280;14429;48.346;16.338;2023-04-08T09:24:33;100184.22;;;11.07;48.58
26859;BME280;14429;48.346;16.338;2023-04-08T09:26:59;100183.72;;;11.29;48.09
26859;BME280;14429;48.346;16.338;2023-04-08T09:29:25;100190.09;;;11.26;48.14
26859;BME280;14429;48.346;16.338;2023-04-08T09:31:53;100191.81;;;11.27;48.40
26859;BME280;14429;48.346;16.338;2023-04-08T09:34:18;100195.06;;;10.77;51.61
26859;BME280;14429;48.346;16.338;2023-04-08T09:36:44;100198.88;;;10.73;50.88
26859;BME280;14429;48.346;16.338;2023-04-08T09:39:09;100205.72;;;10.63;51.40
26859;BME280;14429;48.346;16.338;2023-04-08T09:41:37;100210.59;;;9.84;56.59
26859;BME280;14429;48.346;16.338;2023-04-08T09:44:04;100213.53;;;9.64;55.99
26859;BME280;14429;48.346;16.338;2023-04-08T09:46:34;100213.94;;;9.41;58.07
26859;BME280;14429;48.346;16.338;2023-04-08T09:49:04;100218.25;;;9.59;55.21
26859;BME280;14429;48.346;16.338;2023-04-08T09:51:31;100211.59;;;10.12;52.36
26859;BME280;14429;48.346;16.338;2023-04-08T09:54:00;100214.31;;;9.36;58.14
26859;BME280;14429;48.346;16.338;2023-04-08T09:56:30;100208.44;;;10.05;52.76
26859;BME280;14429;48.346;16.338;2023-04-08T09:59:02;100213.00;;;10.32;52.07
26859;BME280;14429;48.346;16.338;2023-04-08T10:01:37;100216.00;;;10.55;50.82
26859;BME280;14429;48.346;16.338;2023-04-08T10:04:04;100219.09;;;10.77;49.77
26859;BME280;14429;48.346;16.338;2023-04-08T10:06:32;100216.78;;;10.28;53.37
26859;BME280;14429;48.346;16.338;2023-04-08T10:09:00;100217.13;;;10.51;53.81
26859;BME280;14429;48.346;16.338;2023-04-08T10:11:26;100214.44;;;9.78;55.83
26859;BME280;14429;48.346;16.338;2023-04-08T10:13:52;100221.88;;;9.89;56.52
26859;BME280;14429;48.346;16.338;2023-04-08T10:16:20;100229.41;;;9.96;54.66
26859;BME280;14429;48.346;16.338;2023-04-08T10:18:46;100221.91;;;10.31;52.19
26859;BME280;14429;48.346;16.338;2023-04-08T10:21:32;100222.28;;;9.96;55.15
26859;BME280;14429;48.346;16.338;2023-04-08T10:23:59;100222.97;;;10.29;52.36
26859;BME280;14429;48.346;16.338;2023-04-08T10:26:49;100225.06;;;10.24;54.72
26859;BME280;14429;48.346;16.338;2023-04-08T10:29:41;100232.84;;;10.13;54.94
26859;BME280;14429;48.346;16.338;2023-04-08T10:32:26;100228.56;;;9.96;54.94
26859;BME280;14429;48.346;16.338;2023-04-08T10:34:52;100229.22;;;9.23;58.56
26859;BME280;14429;48.346;16.338;2023-04-08T10:37:17;100227.19;;;9.28;58.68
26859;BME280;14429;48.346;16.338;2023-04-08T10:39:48;100228.56;;;9.96;53.33
26859;BME280;14429;48.346;16.338;2023-04-08T10:42:13;100232.63;;;10.16;52.58
26859;BME280;14429;48.346;16.338;2023-04-08T10:44:43;100224.69;;;10.30;54.34
26859;BME280;14429;48.346;16.338;2023-04-08T10:47:11;100229.28;;;10.42;52.25
26859;BME280;14429;48.346;16.338;2023-04-08T10:49:36;100230.25;;;10.12;54.27
26859;BME280;14429;48.346;16.338;2023-04-08T10:52:06;100234.94;;;10.22;52.76
26859;BME280;14429;48.346;16.338;2023-04-08T10:54:31;100230.19;;;10.56;50.86
26859;BME280;14429;48.346;16.338;2023-04-08T10:56:57;100229.69;;;10.49;51.93
26859;BME280;14429;48.346;16.338;2023-04-08T10:59:29;100235.19;;;10.33;53.46
26859;BME280;14429;48.346;16.338;2023-04-08T11:01:55;100236.97;;;10.61;50.59
26859;BME280;14429;48.346;16.338;2023-04-08T11:04:22;100238.78;;;11.02;49.02
26859;BME280;14429;48.346;16.338;2023-04-08T11:06:47;100235.91;;;10.21;55.11
26859;BME280;14429;48.346;16.338;2023-04-08T11:09:14;100238.97;;;10.29;53.72
26859;BME280;14429;48.346;16.338;2023-04-08T11:11:41;100233.88;;;10.53;51.54
26859;BME280;14429;48.346;16.338;2023-04-08T11:14:07;100235.28;;;10.45;52.43
26859;BME280;14429;48.346;16.338;2023-04-08T11:16:33;100236.72;;;10.37;53.21
26859;BME280;14429;48.346;16.338;2023-04-08T11:18:58;100240.91;;;10.41;53.86
26859;BME280;14429;48.346;16.338;2023-04-08T11:21:27;100249.34;;;10.62;51.24
26859;BME280;14429;48.346;16.338;2023-04-08T11:23:52;100245.97;;;10.88;49.77
26859;BME280;14429;48.346;16.338;2023-04-08T11:26:18;100247.47;;;10.78;51.06
26859;BME280;14429;48.346;16.338;2023-04-08T11:28:45;100244.03;;;9.89;56.21
26859;BME280;14429;48.346;16.338;2023-04-08T11:31:11;100244.00;;;10.62;50.70
26859;BME280;14429;48.346;16.338;2023-04-08T11:33:37;100256.03;;;10.83;49.91
26859;BME280;14429;48.346;16.338;2023-04-08T11:36:02;100250.88;;;10.66;50.94
26859;BME280;14429;48.346;16.338;2023-04-08T11:38:29;100251.75;;;10.94;49.30
26859;BME280;14429;48.346;16.338;2023-04-08T11:40:55;100247.28;;;11.22;48.41
26859;BME280;14429;48.346;16.338;2023-04-08T11:43:21;100254.53;;;11.34;48.12
26859;BME280;14429;48.346;16.338;2023-04-08T11:45:46;100242.38;;;11.44;47.65
26859;BME280;14429;48.346;16.338;2023-04-08T11:48:13;100246.16;;;11.54;47.31
26859;BME280;14429;48.346;16.338;2023-04-08T11:50:40;100246.50;;;11.61;46.94
26859;BME280;14429;48.346;16.338;2023-04-08T11:53:15;100238.88;;;11.69;46.97
26859;BME280;14429;48.346;16.338;2023-04-08T11:55:42;100254.41;;;11.77;46.64
26859;BME280;14429;48.346;16.338;2023-04-08T11:58:07;100237.88;;;11.84;46.40
26859;BME280;14429;48.346;16.338;2023-04-08T12:00:33;100238.47;;;11.75;48.05
26859;BME280;14429;48.346;16.338;2023-04-08T12:02:58;100247.22;;;11.10;52.34
26859;BME280;14429;48.346;16.338;2023-04-08T12:05:23;100244.44;;;11.39;48.48
26859;BME280;14429;48.346;16.338;2023-04-08T12:07:49;100245.69;;;11.06;51.82
26859;BME280;14429;48.346;16.338;2023-04-08T12:10:15;100230.34;;;11.51;47.61
26859;BME280;14429;48.346;16.338;2023-04-08T12:12:42;100245.00;;;11.16;50.71
26859;BME280;14429;48.346;16.338;2023-04-08T12:15:08;100246.63;;;11.19;49.14
26859;BME280;14429;48.346;16.338;2023-04-08T12:17:34;100251.47;;;11.12;50.24
26859;BME280;14429;48.346;16.338;2023-04-08T12:19:59;100244.63;;;11.08;49.36
26859;BME280;14429;48.346;16.338;2023-04-08T12:22:25;100251.88;;;11.34;48.04
26859;BME280;14429;48.346;16.338;2023-04-08T12:24:50;100243.47;;;11.54;47.43
26859;BME280;14429;48.346;16.338;2023-04-08T12:27:16;100244.97;;;11.71;46.85
26859;BME280;14429;48.346;16.338;2023-04-08T12:29:43;100246.78;;;11.71;46.78
26859;BME280;14429;48.346;16.338;2023-04-08T12:32:08;100250.88;;;11.76;46.69
26859;BME280;14429;48.346;16.338;2023-04-08T12:34:34;100244.28;;;11.82;46.43
26859;BME280;14429;48.346;16.338;2023-04-08T12:36:59;100241.31;;;11.86;46.38
26859;BME280;14429;48.346;16.338;2023-04-08T12:39:25;100247.69;;;11.84;46.38
26859;BME280;14429;48.346;16.338;2023-04-08T12:41:50;100246.97;;;11.68;47.10